Time;durP1;ratioP1;P1;durP2;ratioP2;P2;SDS_P1;SDS_P2;PMS_P1;PMS_P2;Temp;Humidity;BMP_temperature;BMP_pressure;BME280_temperature;BME280_humidity;BME280_pressure;Samples;Min_cycle;Max_cycle;Signal;HPM_P1;HPM_P2
2024/01/05 00:00:00;;;;;;;14.23;2.20;;;6.50;99.90;;;7.32;100.00;96824.78;5024914;28;20465;-79
2024/01/05 00:02:31;;;;;;;5.20;1.73;;;6.50;99.90;;;7.31;100.00;96822.38;5022094;28;20630;-79
2024/01/05 00:04:59;;;;;;;5.37;2.00;;;6.50;99.90;;;7.25;100.00;96810.97;5025258;28;20992;-79
2024/01/05 00:07:29;;;;;;;15.37;2.87;;;6.50;99.90;;;7.23;100.00;96820.75;5022418;28;20829;-79
2024/01/05 00:09:57;;;;;;;5.90;2.37;;;6.40;99.90;;;7.20;100.00;96812.53;5023480;28;20458;-79
2024/01/05 00:12:26;;;;;;;5.13;1.90;;;6.40;99.90;;;7.10;100.00;96810.31;5024238;28;20549;-79
2024/01/05 00:14:54;;;;;;;6.83;2.23;;;6.30;99.90;;;7.12;100.00;96804.91;5023741;28;20918;-80
2024/01/05 00:17:23;;;;;;;8.80;3.13;;;6.30;99.90;;;7.11;100.00;96804.13;5025137;28;20966;-79
2024/01/05 00:19:53;;;;;;;6.83;2.57;;;6.30;99.90;;;7.11;100.00;96803.31;5023973;28;20462;-79
2024/01/05 00:22:21;;;;;;;8.03;2.50;;;6.30;99.90;;;7.04;100.00;96801.50;5022688;28;20497;-79
2024/01/05 00:24:50;;;;;;;10.53;2.50;;;6.20;99.90;;;6.99;100.00;96798.69;5024476;28;20490;-79
2024/01/05 00:27:18;;;;;;;4.90;1.87;;;6.20;99.90;;;6.99;100.00;96803.06;5025989;28;20454;-79
2024/01/05 00:29:47;;;;;;;4.30;1.77;;;6.20;99.90;;;7.00;100.00;96804.69;5025630;28;20462;-79
2024/01/05 00:32:16;;;;;;;7.90;2.43;;;6.20;99.90;;;7.01;100.00;96803.69;5024115;28;20470;-79
2024/01/05 00:34:46;;;;;;;3.20;1.83;;;6.20;99.90;;;6.97;100.00;96805.88;5025752;28;20468;-80
2024/01/05 00:37:16;;;;;;;7.50;2.23;;;6.30;99.90;;;6.91;100.00;96806.63;5022540;28;20466;-80
2024/01/05 00:39:46;;;;;;;10.53;1.90;;;6.20;99.90;;;6.82;100.00;96807.00;5024389;28;20852;-80
2024/01/05 00:42:14;;;;;;;10.73;2.33;;;6.00;99.90;;;6.88;100.00;96803.63;5020241;28;20468;-79
2024/01/05 00:44:43;;;;;;;4.10;2.00;;;6.10;99.90;;;6.91;100.00;96800.63;5023957;28;20469;-80
2024/01/05 00:47:12;;;;;;;12.70;2.57;;;6.10;99.90;;;6.92;100.00;96797.06;5025140;28;20493;-80
2024/01/05 00:49:40;;;;;;;5.53;2.90;;;6.10;99.90;;;6.82;100.00;96791.41;5021956;28;20493;-79
2024/01/05 00:52:09;;;;;;;8.30;2.50;;;6.00;99.90;;;6.76;100.00;96790.41;5021393;28;21242;-80
2024/01/05 00:54:39;;;;;;;9.40;2.03;;;5.90;99.90;;;6.70;100.00;96793.75;5022344;28;20470;-80
2024/01/05 00:57:08;;;;;;;6.10;2.10;;;5.90;99.90;;;6.72;100.00;96789.19;5024754;28;20550;-79
2024/01/05 00:59:39;;;;;;;7.00;2.60;;;6.00;99.90;;;6.75;100.00;96786.19;5023431;28;20446;-79
2024/01/05 01:02:07;;;;;;;5.90;2.00;;;5.90;99.90;;;6.73;100.00;96780.41;5024928;28;20462;-79
2024/01/05 01:04:36;;;;;;;5.97;2.63;;;5.90;99.90;;;6.71;100.00;96777.19;5022494;28;20466;-80
2024/01/05 01:07:05;;;;;;;10.63;2.30;;;5.90;99.90;;;6.66;100.00;96776.19;5022601;28;20516;-79
2024/01/05 01:09:33;;;;;;;6.20;2.27;;;5.90;99.90;;;6.67;100.00;96770.78;5021205;28;21180;-80
2024/01/05 01:12:04;;;;;;;5.77;2.60;;;5.90;99.90;;;6.62;100.00;96767.16;5023023;28;21003;-79
2024/01/05 01:14:33;;;;;;;9.43;2.30;;;5.80;99.90;;;6.62;100.00;96769.75;5023694;28;20459;-79
2024/01/05 01:17:01;;;;;;;8.00;2.23;;;5.80;99.90;;;6.67;100.00;96756.97;5023808;28;20471;-80
2024/01/05 01:19:30;;;;;;;7.20;2.20;;;5.80;99.90;;;6.61;100.00;96755.16;5023233;28;20473;-79
2024/01/05 01:21:58;;;;;;;8.27;2.40;;;5.80;99.90;;;6.63;100.00;96761.00;5019795;28;20473;-79
2024/01/05 01:24:27;;;;;;;7.60;3.50;;;5.80;99.90;;;6.61;100.00;96753.38;5020753;28;20473;-79
2024/01/05 01:26:55;;;;;;;6.80;2.10;;;5.80;99.90;;;6.64;100.00;96749.59;5023131;28;20663;-79
2024/01/05 01:29:26;;;;;;;4.90;2.00;;;5.90;99.90;;;6.65;100.00;96743.41;5023377;28;20468;-79
2024/01/05 01:31:54;;;;;;;6.57;1.80;;;5.90;99.90;;;6.67;100.00;96742.19;5021006;28;20465;-79
2024/01/05 01:34:23;;;;;;;9.13;2.00;;;5.90;99.90;;;6.69;100.00;96742.03;5021429;28;20467;-79
2024/01/05 01:36:54;;;;;;;8.33;2.30;;;5.90;99.90;;;6.69;100.00;96734.22;5022515;28;20548;-79
2024/01/05 01:39:22;;;;;;;5.17;1.93;;;5.90;99.90;;;6.70;100.00;96730.66;5020737;28;20462;-79
2024/01/05 01:41:51;;;;;;;7.70;2.27;;;5.90;99.90;;;6.68;100.00;96727.44;5020153;28;20469;-80
2024/01/05 01:44:19;;;;;;;12.90;2.80;;;5.80;99.90;;;6.64;100.00;96734.81;5020871;28;20461;-80
2024/01/05 01:46:51;;;;;;;7.70;2.23;;;5.80;99.90;;;6.67;100.00;96725.81;5019787;28;20509;-79
2024/01/05 01:49:21;;;;;;;4.00;2.37;;;5.80;99.90;;;6.69;100.00;96734.22;5020455;28;20461;-79
2024/01/05 01:51:50;;;;;;;10.77;2.87;;;5.90;99.90;;;6.64;100.00;96731.41;5021373;28;20547;-79
2024/01/05 01:54:19;;;;;;;18.50;2.63;;;5.80;99.90;;;6.67;100.00;96728.41;5025778;28;20482;-78
2024/01/05 01:56:51;;;;;;;4.17;1.53;;;5.80;99.90;;;6.68;100.00;96730.03;5024140;28;21086;-79
2024/01/05 01:59:20;;;;;;;3.43;1.97;;;5.80;99.90;;;6.71;100.00;96727.03;5026500;28;20873;-79
2024/01/05 02:01:50;;;;;;;14.03;2.10;;;5.90;99.90;;;6.75;100.00;96723.06;5023375;28;20467;-79
2024/01/05 02:04:20;;;;;;;16.57;2.13;;;6.00;99.90;;;6.71;100.00;96721.84;5025490;28;20561;-82
2024/01/05 02:06:49;;;;;;;6.37;2.03;;;5.90;99.90;;;6.77;100.00;96719.25;5025472;28;20588;-79
2024/01/05 02:09:18;;;;;;;8.00;2.27;;;6.00;99.90;;;6.78;100.00;96712.28;5024261;28;20882;-80
2024/01/05 02:11:48;;;;;;;3.47;1.33;;;6.00;99.90;;;6.80;100.00;96705.91;5023383;28;20471;-79
2024/01/05 02:14:17;;;;;;;9.93;2.90;;;6.00;99.90;;;6.82;100.00;96716.06;5023050;28;20477;-79
2024/01/05 02:16:45;;;;;;;18.47;2.10;;;6.00;99.90;;;6.79;100.00;96714.69;5023873;28;20979;-79
2024/01/05 02:19:16;;;;;;;15.13;2.50;;;6.00;99.90;;;6.77;100.00;96714.06;5022830;28;20461;-79
2024/01/05 02:21:52;;;;;;;4.40;1.80;;;6.00;99.90;;;6.80;100.00;96708.50;5022586;28;20478;-79
2024/01/05 02:24:22;;;;;;;5.53;2.60;;;6.00;99.90;;;6.83;100.00;96696.91;5023743;28;20470;-79
2024/01/05 02:26:51;;;;;;;3.80;1.67;;;6.00;99.90;;;6.83;100.00;96699.50;5024982;28;21024;-79
2024/01/05 02:29:21;;;;;;;8.67;2.10;;;6.00;99.90;;;6.80;100.00;96698.09;5023771;28;20469;-79
2024/01/05 02:31:51;;;;;;;7.80;2.50;;;6.00;99.90;;;6.81;100.00;96701.47;5021317;28;20527;-80
2024/01/05 02:34:19;;;;;;;4.47;1.77;;;6.00;99.90;;;6.80;100.00;96694.72;5020830;28;20474;-79
2024/01/05 02:36:49;;;;;;;9.60;2.37;;;6.00;99.90;;;6.82;100.00;96690.09;5019304;28;20515;-79
2024/01/05 02:39:17;;;;;;;11.93;2.40;;;6.00;99.90;;;6.84;100.00;96693.28;5019097;28;20473;-79
2024/01/05 02:41:48;;;;;;;16.00;2.10;;;6.00;99.90;;;6.81;100.00;96691.91;5018970;28;20557;-79
2024/01/05 02:44:16;;;;;;;10.30;1.97;;;6.00;99.90;;;6.79;100.00;96693.91;5020230;28;20462;-79
2024/01/05 02:46:45;;;;;;;6.17;2.10;;;6.00;99.90;;;6.76;100.00;96685.69;5025048;28;20490;-79
2024/01/05 02:49:13;;;;;;;3.83;2.20;;;6.00;99.90;;;6.80;100.00;96684.31;5025109;28;20479;-79
2024/01/05 02:51:42;;;;;;;4.20;1.93;;;6.00;99.90;;;6.81;100.00;96675.50;5022985;28;20490;-79
2024/01/05 02:54:11;;;;;;;10.90;1.83;;;6.00;99.90;;;6.78;100.00;96670.69;5023991;28;20470;-79
2024/01/05 02:56:40;;;;;;;5.87;2.23;;;6.00;99.90;;;6.68;100.00;96665.09;5023852;28;20469;-79
2024/01/05 02:59:10;;;;;;;5.93;2.10;;;5.80;99.90;;;6.66;100.00;96664.50;5024352;28;22264;-79
2024/01/05 03:01:39;;;;;;;5.70;1.80;;;5.80;99.90;;;6.61;100.00;96664.28;5023989;28;20463;-80
2024/01/05 03:04:07;;;;;;;5.03;1.70;;;5.80;99.90;;;6.54;100.00;96669.44;5025704;28;20511;-80
2024/01/05 03:06:36;;;;;;;21.30;2.53;;;5.70;99.90;;;6.53;100.00;96653.06;5025008;28;20493;-79
2024/01/05 03:09:08;;;;;;;6.50;3.80;;;5.70;99.90;;;6.56;100.00;96657.88;5024216;28;20545;-79
2024/01/05 03:11:38;;;;;;;13.33;2.17;;;5.70;99.90;;;6.56;100.00;96654.47;5021511;28;20469;-79
2024/01/05 03:14:06;;;;;;;8.20;2.47;;;5.70;99.90;;;6.58;100.00;96655.88;5024403;28;20463;-79
2024/01/05 03:16:36;;;;;;;12.23;2.57;;;5.80;99.90;;;6.59;100.00;96648.91;5023829;28;20473;-79
2024/01/05 03:19:05;;;;;;;8.90;2.00;;;5.80;99.90;;;6.62;100.00;96655.50;5023398;28;20470;-80
2024/01/05 03:21:34;;;;;;;12.77;2.57;;;5.80;99.90;;;6.62;100.00;96652.91;5023249;28;20692;-80
2024/01/05 03:24:02;;;;;;;7.73;2.13;;;5.80;99.90;;;6.65;100.00;96655.09;5025409;28;20461;-79
2024/01/05 03:26:31;;;;;;;8.70;2.67;;;5.90;99.90;;;6.66;100.00;96651.50;5024118;28;20512;-79
2024/01/05 03:28:59;;;;;;;6.13;2.40;;;5.90;99.90;;;6.70;100.00;96650.91;5023791;28;20484;-79
2024/01/05 03:31:28;;;;;;;4.63;2.23;;;5.90;99.90;;;6.70;100.00;96647.53;5021669;28;20496;-79
2024/01/05 03:33:58;;;;;;;9.40;2.10;;;5.90;99.90;;;6.71;100.00;96636.13;5024231;28;20496;-79
2024/01/05 03:36:27;;;;;;;6.73;2.00;;;5.90;99.90;;;6.74;100.00;96643.53;5023838;28;20486;-79
2024/01/05 03:38:56;;;;;;;6.77;2.40;;;5.90;99.90;;;6.75;100.00;96640.72;5023546;28;20461;-79
2024/01/05 03:41:24;;;;;;;9.13;2.13;;;5.90;99.90;;;6.76;100.00;96637.16;5021485;28;20462;-79
2024/01/05 03:43:53;;;;;;;4.20;2.00;;;6.00;99.90;;;6.82;100.00;96640.75;5022963;28;20465;-77
2024/01/05 03:46:22;;;;;;;9.60;3.03;;;6.00;99.90;;;6.83;100.00;96631.97;5024406;28;20477;-79
2024/01/05 03:48:50;;;;;;;8.80;1.83;;;6.10;99.90;;;6.88;100.00;96629.56;5025399;28;20465;-80
2024/01/05 03:51:20;;;;;;;6.43;2.20;;;6.20;99.90;;;6.89;100.00;96626.75;5024709;28;20973;-79
2024/01/05 03:53:49;;;;;;;10.93;2.97;;;6.20;99.90;;;6.91;100.00;96631.75;5024466;28;20478;-79
2024/01/05 03:56:18;;;;;;;4.23;2.10;;;6.20;99.90;;;6.96;100.00;96621.56;5021248;28;20556;-79
2024/01/05 03:58:46;;;;;;;5.30;1.93;;;6.30;99.90;;;6.96;100.00;96616.38;5024253;28;20988;-80
2024/01/05 04:01:15;;;;;;;5.37;1.70;;;6.20;99.90;;;6.97;100.00;96612.78;5023387;28;20493;-80
2024/01/05 04:03:43;;;;;;;7.87;2.13;;;6.20;99.90;;;6.92;100.00;96602.19;5023168;28;20557;-79
2024/01/05 04:06:20;;;;;;;4.87;1.90;;;6.10;99.90;;;6.95;100.00;96617.38;5020495;28;20992;-79
2024/01/05 04:08:51;;;;;;;6.93;1.77;;;6.10;99.90;;;6.92;100.00;96599.59;5022243;28;20474;-79
2024/01/05 04:11:21;;;;;;;6.63;1.77;;;6.10;99.90;;;6.97;100.00;96605.00;5022666;28;20455;-78
2024/01/05 04:13:49;;;;;;;18.10;6.43;;;6.30;99.90;;;6.97;100.00;96605.00;5023693;28;20473;-81
2024/01/05 04:16:18;;;;;;;10.43;3.70;;;6.30;99.90;;;7.01;100.00;96603.59;5025579;28;20469;-79
2024/01/05 04:18:46;;;;;;;6.43;2.30;;;6.30;99.90;;;7.00;100.00;96592.41;5022638;28;20476;-76
2024/01/05 04:21:15;;;;;;;4.73;1.90;;;6.30;99.90;;;7.01;100.00;96593.19;5021955;28;20482;-77
2024/01/05 04:23:45;;;;;;;5.37;2.23;;;6.30;99.90;;;7.00;100.00;96591.59;5021425;28;20498;-77
2024/01/05 04:26:14;;;;;;;3.07;2.20;;;6.30;99.90;;;7.03;100.00;96592.00;5022054;28;20837;-77
2024/01/05 04:28:42;;;;;;;8.90;2.67;;;6.30;99.90;;;7.07;100.00;96584.59;5020296;28;20524;-77
2024/01/05 04:31:11;;;;;;;4.40;2.17;;;6.30;99.90;;;7.07;100.00;96587.19;5022334;28;20459;-78
2024/01/05 04:33:39;;;;;;;16.43;2.73;;;6.30;99.90;;;7.09;100.00;96575.59;5023432;28;20458;-76
2024/01/05 04:36:08;;;;;;;5.60;2.17;;;6.30;99.90;;;7.09;100.00;96574.78;5023307;28;20468;-78
2024/01/05 04:38:37;;;;;;;10.33;2.07;;;6.30;99.90;;;7.09;100.00;96579.97;5023747;28;20953;-77
2024/01/05 04:41:07;;;;;;;8.30;2.07;;;6.30;99.90;;;7.13;100.00;96577.78;5025187;28;20464;-77
2024/01/05 04:43:36;;;;;;;7.53;2.37;;;6.30;99.90;;;7.10;100.00;96581.59;5025637;28;20968;-77
2024/01/05 04:46:06;;;;;;;11.50;2.20;;;6.30;99.90;;;7.10;100.00;96586.78;5025085;28;21133;-78
2024/01/05 04:48:35;;;;;;;3.43;1.80;;;6.40;99.90;;;7.12;100.00;96578.78;5027300;28;20497;-78
2024/01/05 04:51:04;;;;;;;4.50;1.80;;;6.30;99.90;;;7.15;100.00;96584.38;5024784;28;20505;-77
2024/01/05 04:53:33;;;;;;;5.53;2.03;;;6.40;99.90;;;7.18;100.00;96583.19;5025269;28;20478;-77
2024/01/05 04:56:03;;;;;;;7.83;1.70;;;6.40;99.90;;;7.16;100.00;96572.97;5026338;28;20512;-77
2024/01/05 04:58:33;;;;;;;6.80;1.77;;;6.40;99.90;;;7.13;100.00;96576.00;5023599;28;20463;-77
2024/01/05 05:01:02;;;;;;;8.70;2.20;;;6.30;99.90;;;7.17;100.00;96579.78;5024119;28;20463;-76
2024/01/05 05:03:30;;;;;;;4.10;1.43;;;6.40;99.90;;;7.17;100.00;96576.38;5024270;28;20905;-77
2024/01/05 05:06:00;;;;;;;5.27;2.10;;;6.40;99.90;;;7.17;100.00;96578.97;5023902;28;20842;-78
2024/01/05 05:08:29;;;;;;;6.77;1.90;;;6.40;99.90;;;7.18;100.00;96568.41;5024636;28;20508;-78
2024/01/05 05:10:57;;;;;;;13.83;1.60;;;6.40;99.90;;;7.20;100.00;96571.59;5024378;28;20841;-78
2024/01/05 05:13:26;;;;;;;6.87;2.30;;;6.40;99.90;;;7.20;100.00;96571.59;5022410;28;20484;-78
2024/01/05 05:15:56;;;;;;;19.90;6.90;;;6.40;99.90;;;7.20;100.00;96566.38;5024040;28;20463;-77
2024/01/05 05:18:24;;;;;;;7.10;2.80;;;6.40;99.90;;;7.21;100.00;96565.38;5022736;28;20580;-78
2024/01/05 05:20:53;;;;;;;4.03;1.90;;;6.50;99.90;;;7.22;100.00;96564.38;5018011;28;20482;-77
2024/01/05 05:23:22;;;;;;;6.57;1.73;;;6.50;99.90;;;7.22;100.00;96571.41;5022420;28;20465;-77
2024/01/05 05:25:50;;;;;;;6.90;1.83;;;6.40;99.90;;;7.23;100.00;96565.97;5019762;28;20835;-78
2024/01/05 05:28:19;;;;;;;6.53;1.73;;;6.40;99.90;;;7.23;100.00;96567.78;5021089;28;20505;-77
2024/01/05 05:30:47;;;;;;;7.60;2.20;;;6.40;99.90;;;7.21;100.00;96570.59;5023413;28;20465;-78
2024/01/05 05:33:17;;;;;;;3.83;1.40;;;6.40;99.90;;;7.21;100.00;96568.00;5018699;28;20462;-78
2024/01/05 05:35:46;;;;;;;2.70;1.70;;;6.40;99.90;;;7.22;100.00;96569.56;5019258;28;20537;-77
2024/01/05 05:38:15;;;;;;;6.40;1.97;;;6.40;99.90;;;7.22;100.00;96572.16;5021264;28;20533;-77
2024/01/05 05:40:45;;;;;;;5.43;1.70;;;6.40;99.90;;;7.22;100.00;96569.56;5016398;28;20458;-77
2024/01/05 05:43:14;;;;;;;4.80;1.90;;;6.40;99.90;;;7.25;100.00;96570.97;4969606;28;20567;-77
2024/01/05 05:45:43;;;;;;;3.57;1.60;;;6.50;99.90;;;7.25;100.00;96558.78;4955173;28;20452;-78
2024/01/05 05:48:13;;;;;;;8.60;2.63;;;6.50;99.90;;;7.25;100.00;96558.78;4957589;28;20509;-78
2024/01/05 05:50:43;;;;;;;3.20;1.50;;;6.50;99.90;;;7.26;100.00;96570.75;4960571;28;20515;-77
2024/01/05 05:53:12;;;;;;;7.73;2.00;;;6.50;99.90;;;7.26;100.00;96573.38;4960098;28;20480;-78
2024/01/05 05:55:40;;;;;;;6.77;1.83;;;6.50;99.90;;;7.25;100.00;96577.00;4960608;28;20469;-78
2024/01/05 05:58:09;;;;;;;12.70;1.93;;;6.50;99.90;;;7.24;100.00;96572.78;4939549;28;21022;-78
2024/01/05 06:00:37;;;;;;;7.27;2.20;;;6.60;99.90;;;7.26;100.00;96578.56;4959774;28;20542;-79
2024/01/05 06:03:06;;;;;;;8.33;2.00;;;6.50;99.90;;;7.27;100.00;96574.16;4958708;28;20471;-78
2024/01/05 06:05:38;;;;;;;4.07;1.90;;;6.50;99.90;;;7.28;100.00;96573.97;4959053;28;20468;-78
2024/01/05 06:08:08;;;;;;;7.27;2.20;;;6.60;99.90;;;7.26;100.00;96568.16;4963410;28;20496;-77
2024/01/05 06:10:37;;;;;;;6.60;2.10;;;6.60;99.90;;;7.29;100.00;96577.38;4959559;28;20993;-77
2024/01/05 06:13:06;;;;;;;4.30;1.90;;;6.60;99.90;;;7.27;100.00;96577.56;4959408;28;20469;-78
2024/01/05 06:15:34;;;;;;;3.80;1.87;;;6.60;99.90;;;7.28;100.00;96576.56;4959220;28;20589;-78
2024/01/05 06:18:03;;;;;;;3.53;1.43;;;6.70;99.90;;;7.28;100.00;96579.19;4961418;28;20519;-77
2024/01/05 06:20:32;;;;;;;9.13;2.00;;;6.60;99.90;;;7.28;100.00;96573.97;4961396;28;20484;-78
2024/01/05 06:23:01;;;;;;;7.33;1.80;;;6.60;99.90;;;7.28;100.00;96578.38;4960028;28;20458;-78
2024/01/05 06:25:31;;;;;;;5.00;1.50;;;6.50;99.90;;;7.28;100.00;96578.38;4958389;28;20460;-78
2024/01/05 06:28:00;;;;;;;4.30;1.73;;;6.50;99.90;;;7.27;100.00;96574.16;4964358;28;21104;-77
2024/01/05 06:30:28;;;;;;;4.73;1.90;;;6.50;99.90;;;7.26;100.00;96575.97;4962391;28;20967;-77
2024/01/05 06:32:57;;;;;;;6.53;1.67;;;6.50;99.90;;;7.32;100.00;96580.38;4961436;28;20472;-77
2024/01/05 06:35:25;;;;;;;6.77;1.40;;;6.50;99.90;;;7.31;100.00;96570.16;4961545;28;20461;-78
2024/01/05 06:37:54;;;;;;;4.87;2.00;;;6.50;99.90;;;7.30;100.00;96579.75;4961888;28;20465;-78
2024/01/05 06:40:22;;;;;;;7.50;1.70;;;6.50;99.90;;;7.33;100.00;96571.56;4962193;28;20484;-78
2024/01/05 06:42:54;;;;;;;5.10;2.10;;;6.60;99.90;;;7.31;100.00;96568.38;4961971;28;20508;-77
2024/01/05 06:45:23;;;;;;;4.70;2.10;;;6.50;99.90;;;7.35;100.00;96566.16;4959287;28;20466;-78
2024/01/05 06:47:51;;;;;;;3.20;1.83;;;6.50;99.90;;;7.33;100.00;96563.75;4960808;28;21058;-78
2024/01/05 06:50:21;;;;;;;3.07;1.90;;;6.60;99.90;;;7.31;100.00;96560.56;4960266;28;20942;-78
2024/01/05 06:52:49;;;;;;;3.43;2.10;;;6.60;99.90;;;7.35;100.00;96564.38;4957943;28;20488;-77
2024/01/05 06:55:19;;;;;;;3.47;1.60;;;6.60;99.90;;;7.34;100.00;96554.16;4960624;28;20484;-77
2024/01/05 06:57:48;;;;;;;4.03;1.90;;;6.70;99.90;;;7.35;100.00;96573.97;4960071;28;20504;-77
2024/01/05 07:00:19;;;;;;;5.00;1.90;;;6.60;99.90;;;7.36;100.00;96567.75;4961331;28;20479;-77
2024/01/05 07:02:47;;;;;;;15.57;2.37;;;6.60;99.90;;;7.37;100.00;96570.16;4958903;28;20465;-77
2024/01/05 07:05:16;;;;;;;3.57;1.70;;;6.60;99.90;;;7.36;100.00;96554.75;4960945;28;20477;-77
2024/01/05 07:07:45;;;;;;;4.03;1.97;;;6.70;99.90;;;7.38;100.00;96563.97;4958821;28;20464;-77
2024/01/05 07:10:13;;;;;;;3.23;1.70;;;6.60;99.90;;;7.37;100.00;96566.75;4956587;28;21203;-77
2024/01/05 07:12:42;;;;;;;9.90;2.13;;;6.60;99.90;;;7.39;100.00;96565.53;4938732;28;20476;-77
2024/01/05 07:15:11;;;;;;;3.17;1.53;;;6.70;99.90;;;7.40;100.00;96574.94;5002015;28;20463;-77
2024/01/05 07:17:43;;;;;;;2.50;1.53;;;6.70;99.90;;;7.40;100.00;96576.75;4979341;28;20858;-77
2024/01/05 07:20:12;;;;;;;4.30;1.67;;;6.70;99.90;;;7.42;100.00;96569.56;4979230;28;20495;-78
2024/01/05 07:22:41;;;;;;;4.33;1.90;;;6.70;99.90;;;7.44;100.00;96563.13;4979157;28;20830;-78
2024/01/05 07:25:10;;;;;;;4.50;1.80;;;6.80;99.90;;;7.42;100.00;96567.75;4980937;28;20471;-78
2024/01/05 07:27:39;;;;;;;4.10;2.53;;;6.80;99.90;;;7.45;100.00;96569.94;4979882;28;20459;-77
2024/01/05 07:30:08;;;;;;;4.83;1.60;;;6.80;99.90;;;7.48;100.00;96574.72;4982056;28;21021;-77
2024/01/05 07:32:38;;;;;;;6.27;2.40;;;6.80;99.90;;;7.47;100.00;96569.72;4981165;28;20474;-78
2024/01/05 07:35:10;;;;;;;7.20;2.30;;;6.80;99.90;;;7.50;100.00;96567.50;4985539;28;20482;-78
2024/01/05 07:37:39;;;;;;;9.50;3.00;;;6.80;99.90;;;7.53;100.00;96569.72;4984817;28;20576;-78
2024/01/05 07:40:09;;;;;;;14.10;3.53;;;6.90;99.90;;;7.52;100.00;96567.31;4981887;28;20460;-78
2024/01/05 07:42:38;;;;;;;4.70;2.00;;;6.90;99.90;;;7.55;100.00;96559.91;4983306;28;20598;-79
2024/01/05 07:45:08;;;;;;;6.57;2.23;;;7.00;99.90;;;7.54;100.00;96565.31;4982360;28;20474;-79
2024/01/05 07:47:37;;;;;;;6.07;1.97;;;7.00;99.90;;;7.53;100.00;96561.91;4980989;28;20533;-77
2024/01/05 07:50:08;;;;;;;12.03;2.63;;;6.90;99.90;;;7.57;100.00;96559.69;4982226;28;20499;-77
2024/01/05 07:52:36;;;;;;;6.67;2.20;;;7.00;99.90;;;7.62;100.00;96553.88;4984102;28;20464;-77
2024/01/05 07:55:07;;;;;;;3.03;2.03;;;7.00;99.90;;;7.65;100.00;96553.47;4982874;28;20471;-78
2024/01/05 07:57:36;;;;;;;10.43;2.20;;;7.00;99.90;;;7.64;100.00;96550.06;4982576;28;20966;-76
2024/01/05 08:00:06;;;;;;;8.03;2.30;;;7.10;99.90;;;7.69;100.00;96552.06;4982638;28;20471;-77
2024/01/05 08:02:35;;;;;;;4.30;2.03;;;7.10;99.90;;;7.70;100.00;96551.06;4984265;28;20468;-77
2024/01/05 08:05:04;;;;;;;8.53;2.37;;;7.10;99.90;;;7.68;100.00;96551.25;4983657;28;20943;-77
2024/01/05 08:07:34;;;;;;;6.43;2.10;;;7.10;99.90;;;7.70;100.00;96562.28;4986460;28;21551;-77
2024/01/05 08:10:03;;;;;;;9.33;1.90;;;7.10;99.90;;;7.69;100.00;96557.25;4985159;28;20606;-77
2024/01/05 08:12:31;;;;;;;5.60;2.10;;;7.10;99.90;;;7.75;100.00;96551.22;4984230;28;20589;-77
2024/01/05 08:15:00;;;;;;;6.77;1.90;;;7.10;99.90;;;7.75;100.00;96553.84;4982687;28;20496;-78
2024/01/05 08:17:29;;;;;;;3.27;1.43;;;7.20;99.90;;;7.75;100.00;96551.22;4983685;28;20469;-77
2024/01/05 08:19:57;;;;;;;4.30;1.63;;;7.20;99.90;;;7.75;100.00;96551.22;4982701;28;20486;-77
2024/01/05 08:22:26;;;;;;;2.90;1.40;;;7.20;99.90;;;7.77;100.00;96551.84;4983222;28;20476;-77
2024/01/05 08:24:56;;;;;;;6.30;1.73;;;7.30;99.90;;;7.78;100.00;96553.41;4984953;28;20463;-77
2024/01/05 08:27:24;;;;;;;3.70;1.80;;;7.30;99.90;;;7.80;100.00;96548.81;4982295;28;20478;-77
2024/01/05 08:29:53;;;;;;;2.77;1.77;;;7.30;99.90;;;7.81;100.00;96551.19;4984736;28;20551;-77
2024/01/05 08:32:21;;;;;;;4.60;1.80;;;7.30;99.90;;;7.84;100.00;96545.63;4985004;28;20482;-77
2024/01/05 08:34:49;;;;;;;7.53;2.37;;;7.30;99.90;;;7.85;100.00;96538.56;4983757;28;20473;-77
2024/01/05 08:37:18;;;;;;;7.47;2.33;;;7.20;99.90;;;7.84;100.00;96539.59;4984001;28;20470;-77
2024/01/05 08:39:46;;;;;;;7.60;2.10;;;7.30;99.90;;;7.85;100.00;96530.78;4982327;28;20844;-78
2024/01/05 08:42:16;;;;;;;5.97;2.13;;;7.40;99.90;;;7.83;100.00;96541.41;4981748;28;20494;-77
2024/01/05 08:44:45;;;;;;;8.07;1.80;;;7.40;99.90;;;7.88;100.00;96532.97;4981549;28;20939;-77
2024/01/05 08:47:13;;;;;;;10.40;1.80;;;7.40;99.90;;;7.86;100.00;96535.78;4985663;28;20472;-78
2024/01/05 08:49:42;;;;;;;3.63;1.50;;;7.30;99.90;;;7.88;100.00;96533.75;4983102;28;20870;-78
2024/01/05 08:52:11;;;;;;;6.00;1.50;;;7.30;99.90;;;7.89;100.00;96524.94;4982289;28;20965;-78
2024/01/05 08:54:40;;;;;;;4.60;1.70;;;7.30;99.90;;;7.92;100.00;96523.72;4982617;28;20571;-78
2024/01/05 08:57:11;;;;;;;5.43;1.37;;;7.30;99.90;;;7.94;100.00;96532.16;4982289;28;20543;-78
2024/01/05 08:59:43;;;;;;;9.33;2.00;;;7.40;99.90;;;7.96;100.00;96533.53;4980038;28;20459;-78
2024/01/05 09:02:11;;;;;;;4.27;1.63;;;7.40;99.90;;;7.98;100.00;96541.16;4981169;28;20483;-78
2024/01/05 09:04:40;;;;;;;6.80;1.50;;;7.40;99.90;;;7.98;100.00;96533.34;4980518;28;20477;-78
2024/01/05 09:07:09;;;;;;;74.97;36.63;;;7.40;99.90;;;8.01;100.00;96543.31;4981598;28;20551;-78
2024/01/05 09:09:37;;;;;;;5.10;2.27;;;7.40;99.90;;;8.02;100.00;96544.91;4981306;28;20492;-78
2024/01/05 09:12:08;;;;;;;2.63;1.47;;;7.50;99.90;;;8.04;100.00;96555.94;4980714;28;20472;-78
2024/01/05 09:14:38;;;;;;;6.33;1.80;;;7.60;99.90;;;8.04;100.00;96553.31;4981796;28;20539;-78
2024/01/05 09:17:07;;;;;;;9.90;1.93;;;7.60;99.90;;;8.04;100.00;96555.94;4981563;28;20475;-78
2024/01/05 09:19:36;;;;;;;3.30;1.30;;;7.60;99.90;;;8.05;100.00;96560.13;4979768;28;20483;-78
2024/01/05 09:22:07;;;;;;;6.30;1.80;;;7.60;99.90;;;8.06;100.00;96564.31;4979614;28;20891;-78
2024/01/05 09:24:36;;;;;;;33.67;14.00;;;7.60;99.90;;;8.09;100.00;96576.91;4981086;28;20503;-77
2024/01/05 09:27:05;;;;;;;14.30;6.13;;;7.60;99.90;;;8.10;100.00;96570.72;4978989;28;20487;-78
2024/01/05 09:29:34;;;;;;;2.53;1.40;;;7.60;99.90;;;8.10;100.00;96581.13;4980629;28;20554;-80
2024/01/05 09:32:03;;;;;;;2.13;1.47;;;7.60;99.90;;;8.11;100.00;96574.91;4980007;28;21028;-80
2024/01/05 09:34:32;;;;;;;4.77;1.80;;;7.50;99.90;;;8.15;100.00;96586.50;4981619;28;20460;-80
2024/01/05 09:37:03;;;;;;;2.67;1.70;;;7.60;99.90;;;8.13;100.00;96595.50;4983056;28;20467;-80
2024/01/05 09:39:32;;;;;;;4.33;1.50;;;7.60;99.90;;;8.15;100.00;96596.94;4983548;28;20465;-79
2024/01/05 09:42:00;;;;;;;4.17;1.83;;;7.60;99.90;;;8.16;100.00;96593.28;4981602;28;21344;-80
2024/01/05 09:44:31;;;;;;;3.13;1.30;;;7.60;99.90;;;8.16;100.00;96588.09;4981617;28;20537;-80
2024/01/05 09:46:59;;;;;;;2.17;1.40;;;7.70;99.90;;;8.20;100.00;96584.06;4981389;28;20474;-80
2024/01/05 09:49:28;;;;;;;4.33;1.43;;;7.70;99.90;;;8.18;100.00;96595.72;4982743;28;20467;-80
2024/01/05 09:52:00;;;;;;;3.23;2.03;;;7.70;99.90;;;8.16;100.00;96603.72;4983047;28;20630;-79
2024/01/05 09:54:29;;;;;;;5.70;1.20;;;7.60;99.90;;;8.23;100.00;96614.09;4982609;28;20475;-79
2024/01/05 09:56:58;;;;;;;2.07;1.03;;;7.70;99.90;;;8.24;100.00;96608.69;4982854;28;20456;-79
2024/01/05 09:59:27;;;;;;;2.60;1.60;;;7.70;99.90;;;8.22;100.00;96612.53;4982028;28;20959;-80
2024/01/05 10:01:58;;;;;;;1.33;1.10;;;7.60;99.90;;;8.18;100.00;96606.94;4981635;28;20484;-80
2024/01/05 10:04:28;;;;;;;1.97;1.20;;;7.70;99.90;;;8.17;100.00;96614.94;4981994;28;20471;-79
2024/01/05 10:07:01;;;;;;;3.80;1.27;;;7.70;99.90;;;8.17;100.00;96625.34;4982745;28;20490;-80
2024/01/05 10:09:31;;;;;;;5.23;1.00;;;7.60;99.90;;;8.05;100.00;96623.38;4981697;28;22381;-80
2024/01/05 10:12:00;;;;;;;2.33;1.30;;;7.50;99.90;;;8.02;100.00;96618.59;4982014;28;20492;-79
2024/01/05 10:14:29;;;;;;;5.70;1.20;;;7.50;99.90;;;8.07;100.00;96625.78;4982176;28;21066;-79
2024/01/05 10:17:10;;;;;;;1.10;0.80;;;7.50;99.90;;;8.02;100.00;96621.19;4982046;28;20522;-80
2024/01/05 10:19:41;;;;;;;8.97;1.23;;;7.60;99.90;;;7.99;100.00;96623.41;4982472;28;20493;-80
2024/01/05 10:22:13;;;;;;;1.43;0.97;;;7.50;99.90;;;7.95;100.00;96628.22;4981945;28;20484;-80
2024/01/05 10:24:43;;;;;;;6.73;1.20;;;7.40;99.90;;;7.93;100.00;96638.06;4982834;28;20472;-80
2024/01/05 10:27:14;;;;;;;2.57;0.90;;;7.40;99.90;;;7.92;100.00;96633.03;4981849;28;20476;-80
2024/01/05 10:29:44;;;;;;;4.33;1.07;;;7.50;99.90;;;7.90;100.00;96629.84;4982915;28;20467;-80
2024/01/05 10:32:17;;;;;;;2.90;0.90;;;7.40;99.90;;;7.91;100.00;96636.66;4980394;28;20860;-80